Locust Grove, Arkansas
Current Conditions -  °F | °C
As of 11:55 PM on Saturday 22 Nov 2014 (Local Time) from KBVX Reporting Station
Overcast Overcast  
Wind Chill: 55°   Ceiling: 3600
Heat Index: 55°   Visibility: 5mi
Dew Point: 48°   Wind: 7mph
Humidity: 77%   Direction: 120°ESE
Pressure: 29.87"   Gusts: NA
Location:  35.72°N, 91.74°W
Report Text: KBVX 230555Z AUTO 12006KT 5SM OVC036 13/09 A2987 RMK AO1 10130 20100 57027
Loading
Personal Weather Stations






























Interactive Weather Map New forecast layout! Learn more

10-Day Weather Forecast

Advertisements
Track Severe Weather on mobile